createdAt,value
2022-09-06T00:01:15.568Z,17.48
2022-09-06T00:03:46.221Z,19.10
2022-09-06T00:06:16.588Z,20.50
2022-09-06T00:08:47.305Z,21.83
2022-09-06T00:11:18.488Z,16.50
2022-09-06T00:14:02.773Z,19.10
2022-09-06T00:16:37.313Z,20.45
2022-09-06T00:19:12.532Z,16.58
2022-09-06T00:21:41.732Z,15.70
2022-09-06T00:24:09.908Z,17.13
2022-09-06T00:26:40.005Z,19.40
2022-09-06T00:29:07.876Z,18.42
2022-09-06T00:31:35.918Z,14.43
2022-09-06T00:34:07.024Z,18.98
2022-09-06T00:36:40.796Z,22.10
2022-09-06T00:39:08.735Z,18.55
2022-09-06T00:41:36.904Z,20.55
2022-09-06T00:44:05.408Z,22.02
2022-09-06T00:46:38.350Z,22.75
2022-09-06T00:49:13.864Z,18.50
2022-09-06T00:51:45.071Z,17.65
2022-09-06T00:54:16.585Z,21.05
2022-09-06T00:56:45.318Z,21.58
2022-09-06T00:59:13.928Z,18.60
2022-09-06T01:01:42.348Z,19.80
2022-09-06T01:04:10.502Z,18.25
2022-09-06T01:07:10.754Z,19.75
2022-09-06T01:09:53.556Z,21.23
2022-09-06T01:12:38.996Z,21.88
2022-09-06T01:15:27.181Z,18.80
2022-09-06T01:18:20.683Z,19.98
2022-09-06T01:21:20.258Z,22.75
2022-09-06T01:24:12.544Z,22.67
2022-09-06T01:27:20.265Z,23.52
2022-09-06T01:30:01.150Z,17.83
2022-09-06T01:32:44.200Z,22.63
2022-09-06T01:35:52.700Z,18.40
2022-09-06T01:38:24.066Z,19.27
2022-09-06T01:40:56.143Z,20.48
2022-09-06T01:43:32.233Z,19.65
2022-09-06T01:46:21.407Z,19.17
2022-09-06T01:49:27.454Z,17.83
2022-09-06T01:52:30.554Z,17.42
2022-09-06T01:55:19.595Z,17.88
2022-09-06T01:57:50.408Z,16.10
2022-09-06T02:00:22.531Z,17.77
2022-09-06T02:03:08.591Z,18.65
2022-09-06T02:05:53.854Z,17.85
2022-09-06T02:08:53.371Z,20.10
2022-09-06T02:11:24.134Z,17.05
2022-09-06T02:13:56.870Z,17.73
2022-09-06T02:16:27.120Z,18.10
2022-09-06T02:19:21.410Z,21.33
2022-09-06T02:21:52.514Z,18.80
2022-09-06T02:24:31.663Z,16.38
2022-09-06T02:27:02.368Z,16.60
2022-09-06T02:29:33.393Z,18.70
2022-09-06T02:32:20.613Z,16.88
2022-09-06T02:34:51.352Z,21.50
2022-09-06T02:37:19.481Z,21.67
2022-09-06T02:39:55.597Z,19.85
2022-09-06T02:42:24.772Z,17.77
2022-09-06T02:44:52.800Z,19.85
2022-09-06T02:47:21.547Z,17.25
2022-09-06T02:49:49.327Z,20.08
2022-09-06T02:52:18.452Z,19.52
2022-09-06T02:54:46.203Z,20.15
2022-09-06T02:57:19.945Z,21.23
2022-09-06T02:59:47.656Z,21.05
2022-09-06T03:02:16.132Z,20.25
2022-09-06T03:04:44.047Z,22.45
2022-09-06T03:07:11.935Z,20.80
2022-09-06T03:09:39.905Z,18.88
2022-09-06T03:12:07.687Z,19.25
2022-09-06T03:14:36.334Z,23.67
2022-09-06T03:17:04.637Z,20.90
2022-09-06T03:19:35.344Z,18.35
2022-09-06T03:24:30.503Z,20.13
2022-09-06T03:26:58.323Z,21.90
2022-09-06T03:29:26.232Z,20.77
2022-09-06T03:31:57.058Z,19.80
2022-09-06T03:34:24.896Z,21.63
2022-09-06T03:36:53.299Z,26.40
2022-09-06T03:39:21.371Z,24.40
2022-09-06T03:41:50.381Z,21.55
2022-09-06T03:44:18.162Z,19.65
2022-09-06T03:46:48.235Z,23.63
2022-09-06T03:49:18.685Z,24.83
2022-09-06T03:51:49.024Z,21.23
2022-09-06T03:54:21.107Z,23.08
2022-09-06T03:57:00.959Z,24.45
2022-09-06T03:59:28.609Z,23.60
2022-09-06T04:01:56.475Z,21.85
2022-09-06T04:04:24.701Z,20.92
2022-09-06T04:06:52.491Z,20.00
2022-09-06T04:09:20.275Z,28.25
2022-09-06T04:11:47.932Z,24.88
2022-09-06T04:14:15.742Z,22.85
2022-09-06T04:16:43.546Z,21.98
2022-09-06T04:19:14.310Z,26.60
2022-09-06T04:21:42.557Z,24.88
2022-09-06T04:24:14.921Z,22.92
2022-09-06T04:26:42.716Z,23.65
2022-09-06T04:29:10.349Z,22.30
2022-09-06T04:31:38.240Z,24.90
2022-09-06T04:34:06.031Z,23.90
2022-09-06T04:36:33.665Z,26.38
2022-09-06T04:39:01.327Z,26.63
2022-09-06T04:41:29.039Z,21.15
2022-09-06T04:43:56.661Z,32.83
2022-09-06T04:46:29.903Z,25.15
2022-09-06T04:48:58.123Z,23.80
2022-09-06T04:51:26.210Z,31.67
2022-09-06T04:53:54.289Z,26.88
2022-09-06T04:56:32.100Z,31.98
2022-09-06T04:59:00.171Z,27.08
2022-09-06T05:01:28.108Z,30.67
2022-09-06T05:03:57.091Z,27.73
2022-09-06T05:06:25.951Z,26.85
2022-09-06T05:08:53.888Z,28.10
2022-09-06T05:11:24.822Z,33.28
2022-09-06T05:13:52.688Z,32.28
2022-09-06T05:16:21.988Z,30.52
2022-09-06T05:18:49.819Z,30.80
2022-09-06T05:21:17.519Z,23.63
2022-09-06T05:23:47.705Z,24.05
2022-09-06T05:26:15.501Z,25.52
2022-09-06T05:28:43.543Z,22.27
2022-09-06T05:31:13.352Z,26.48
2022-09-06T05:33:41.056Z,27.67
2022-09-06T05:36:11.755Z,23.42
2022-09-06T05:38:39.551Z,27.25
2022-09-06T05:41:07.631Z,31.88
2022-09-06T05:43:35.307Z,32.70
2022-09-06T05:46:06.118Z,31.13
2022-09-06T05:48:37.061Z,33.17
2022-09-06T05:51:12.792Z,29.02
2022-09-06T05:53:46.019Z,26.42
2022-09-06T05:56:21.171Z,30.75
2022-09-06T05:58:51.328Z,27.75
2022-09-06T06:01:24.964Z,36.63
2022-09-06T06:04:08.064Z,35.30
2022-09-06T06:06:40.876Z,27.38
2022-09-06T06:09:08.740Z,27.67
2022-09-06T06:11:36.992Z,36.17
2022-09-06T06:14:05.222Z,33.40
2022-09-06T06:16:33.537Z,23.42
2022-09-06T06:19:01.376Z,29.92
2022-09-06T06:21:37.248Z,31.35
2022-09-06T06:24:06.360Z,30.67
2022-09-06T06:26:37.342Z,28.38
2022-09-06T06:29:08.347Z,26.88
2022-09-06T06:31:38.174Z,27.17
2022-09-06T06:34:06.912Z,28.65
2022-09-06T06:36:36.516Z,26.73
2022-09-06T06:39:06.877Z,32.90
2022-09-06T06:41:35.104Z,25.15
2022-09-06T06:44:05.643Z,24.90
2022-09-06T06:49:10.154Z,24.60
2022-09-06T06:51:38.916Z,22.88
2022-09-06T06:54:07.298Z,24.42
2022-09-06T06:56:37.326Z,26.48
2022-09-06T07:01:36.128Z,29.30
2022-09-06T07:04:09.032Z,26.10
2022-09-06T07:12:38.863Z,25.00
2022-09-06T07:15:06.826Z,30.13
2022-09-06T07:17:35.688Z,26.33
2022-09-06T07:20:19.166Z,21.63
2022-09-06T07:26:27.604Z,19.95
2022-09-06T07:29:01.848Z,22.35
2022-09-06T07:34:26.142Z,28.40
2022-09-06T07:37:04.209Z,25.70
2022-09-06T07:39:33.247Z,17.58
2022-09-06T07:42:03.848Z,19.00
2022-09-06T07:44:31.530Z,18.42
2022-09-06T07:55:28.991Z,16.70
2022-09-06T07:57:59.492Z,16.98
2022-09-06T08:00:27.701Z,17.33
2022-09-06T08:02:55.543Z,13.80
2022-09-06T08:11:21.214Z,18.45
2022-09-06T08:14:01.244Z,16.58
2022-09-06T08:16:30.918Z,19.83
2022-09-06T08:19:05.176Z,13.60
2022-09-06T08:21:35.137Z,21.77
2022-09-06T08:24:09.167Z,17.10
2022-09-06T08:26:42.528Z,18.65
2022-09-06T08:29:27.515Z,13.80
2022-09-06T08:31:55.402Z,20.77
2022-09-06T08:34:23.327Z,17.10
2022-09-06T08:36:53.384Z,22.65
2022-09-06T08:39:21.197Z,8.00
2022-09-06T08:42:07.393Z,17.33
2022-09-06T08:44:58.456Z,16.35
2022-09-06T08:47:28.123Z,16.27
2022-09-06T08:50:02.502Z,14.30
2022-09-06T08:53:15.652Z,19.05
2022-09-06T08:56:00.371Z,18.65
2022-09-06T08:58:47.234Z,17.00
2022-09-06T09:01:23.260Z,15.65
2022-09-06T09:04:01.929Z,15.82
2022-09-06T09:07:14.718Z,13.27
2022-09-06T09:09:48.799Z,17.02
2022-09-06T09:12:34.689Z,14.45
2022-09-06T09:15:11.334Z,12.27
2022-09-06T09:17:42.110Z,19.60
2022-09-06T09:20:12.978Z,12.25
2022-09-06T09:22:45.995Z,10.85
2022-09-06T09:25:20.916Z,13.98
2022-09-06T09:27:57.789Z,12.88
2022-09-06T09:30:48.290Z,17.70
2022-09-06T09:33:36.072Z,19.35
2022-09-06T09:36:14.461Z,12.93
2022-09-06T09:38:49.264Z,17.27
2022-09-06T09:41:37.481Z,13.98
2022-09-06T09:44:11.629Z,15.77
2022-09-06T09:46:40.242Z,13.52
2022-09-06T09:49:40.863Z,12.57
2022-09-06T09:52:13.979Z,12.80
2022-09-06T09:54:45.205Z,9.90
2022-09-06T09:57:18.836Z,22.20
2022-09-06T09:59:51.128Z,14.27
2022-09-06T10:02:39.378Z,13.15
2022-09-06T10:05:11.952Z,14.98
2022-09-06T10:07:44.174Z,17.33
2022-09-06T10:10:15.527Z,13.10
2022-09-06T10:12:43.488Z,14.52
2022-09-06T10:15:31.961Z,11.75
2022-09-06T10:17:59.704Z,12.57
2022-09-06T10:20:48.510Z,11.35
2022-09-06T10:26:46.273Z,16.23
2022-09-06T10:29:17.357Z,15.57
2022-09-06T10:32:22.292Z,10.52
2022-09-06T10:35:00.981Z,16.88
2022-09-06T10:37:29.552Z,15.82
2022-09-06T10:40:10.202Z,18.13
2022-09-06T10:42:55.200Z,12.82
2022-09-06T10:45:33.511Z,13.05
2022-09-06T10:48:19.233Z,15.80
2022-09-06T10:51:06.203Z,17.73
2022-09-06T10:53:56.857Z,10.07
2022-09-06T10:56:44.118Z,11.90
2022-09-06T10:59:38.354Z,15.07
2022-09-06T11:02:32.682Z,16.60
2022-09-06T11:09:05.303Z,17.23
2022-09-06T11:12:25.171Z,15.70
2022-09-06T11:14:52.961Z,17.60
2022-09-06T11:17:59.158Z,12.60
2022-09-06T11:20:31.404Z,15.82
2022-09-06T11:23:21.590Z,13.18
2022-09-06T11:26:05.432Z,14.00
2022-09-06T11:28:54.735Z,13.20
2022-09-06T11:34:38.505Z,16.73
2022-09-06T11:37:08.719Z,17.15
2022-09-06T11:42:47.840Z,17.55
2022-09-06T11:45:51.014Z,19.67
2022-09-06T11:48:25.411Z,14.57
2022-09-06T11:50:53.894Z,12.23
2022-09-06T11:53:31.891Z,16.77
2022-09-06T11:56:05.446Z,15.63
2022-09-06T11:58:42.334Z,10.85
2022-09-06T12:04:09.445Z,11.38
2022-09-06T12:06:41.274Z,17.65
2022-09-06T12:09:47.467Z,16.35
2022-09-06T12:12:42.281Z,21.52
2022-09-06T12:15:31.996Z,13.77
2022-09-06T12:18:01.666Z,14.05
2022-09-06T12:20:51.386Z,18.05
2022-09-06T12:23:37.444Z,14.52
2022-09-06T12:26:12.470Z,13.63
2022-09-06T12:28:55.053Z,12.80
2022-09-06T12:31:50.581Z,12.93
2022-09-06T12:34:23.080Z,10.43
2022-09-06T12:37:04.716Z,12.10
2022-09-06T12:39:32.669Z,12.68
2022-09-06T12:42:05.893Z,10.95
2022-09-06T12:44:43.452Z,11.43
2022-09-06T12:47:37.788Z,15.38
2022-09-06T12:50:22.448Z,12.82
2022-09-06T12:53:02.705Z,11.60
2022-09-06T12:55:42.009Z,16.20
2022-09-06T12:58:12.132Z,12.77
2022-09-06T13:05:54.514Z,17.65
2022-09-06T13:08:40.631Z,13.27
2022-09-06T13:11:14.834Z,10.48
2022-09-06T13:13:52.174Z,8.57
2022-09-06T13:16:22.399Z,9.50
2022-09-06T13:21:35.702Z,12.23
2022-09-06T13:24:23.952Z,13.75
2022-09-06T13:26:52.989Z,16.17
2022-09-06T13:29:29.073Z,9.65
2022-09-06T13:31:59.089Z,9.30
2022-09-06T13:34:34.600Z,9.80
2022-09-06T13:37:11.713Z,11.30
2022-09-06T13:39:41.563Z,17.90
2022-09-06T13:42:11.846Z,13.73
2022-09-06T13:47:08.776Z,12.80
2022-09-06T13:49:39.391Z,13.55
2022-09-06T13:52:10.534Z,9.35
2022-09-06T13:54:39.815Z,7.30
2022-09-06T13:57:07.681Z,8.60
2022-09-06T13:59:35.468Z,11.48
2022-09-06T14:02:08.124Z,11.02
2022-09-06T14:04:40.163Z,9.60
2022-09-06T14:07:07.922Z,10.80
2022-09-06T14:09:36.183Z,14.27
2022-09-06T14:12:07.897Z,17.67
2022-09-06T14:14:55.596Z,16.10
2022-09-06T14:17:33.469Z,13.32
2022-09-06T14:20:04.272Z,9.75
2022-09-06T14:22:32.082Z,11.25
2022-09-06T14:25:01.128Z,9.30
2022-09-06T14:27:28.984Z,11.20
2022-09-06T14:29:56.682Z,8.90
2022-09-06T14:32:26.654Z,8.55
2022-09-06T14:34:54.579Z,13.77
2022-09-06T14:37:22.569Z,19.23
2022-09-06T14:39:50.426Z,14.52
2022-09-06T14:42:18.129Z,12.45
2022-09-06T14:44:46.355Z,15.45
2022-09-06T14:47:14.791Z,14.30
2022-09-06T14:49:44.617Z,13.15
2022-09-06T14:52:12.466Z,15.93
2022-09-06T14:54:40.418Z,7.88
2022-09-06T14:57:08.217Z,10.60
2022-09-06T14:59:36.331Z,9.48
2022-09-06T15:02:04.391Z,17.80
2022-09-06T15:04:33.422Z,14.32
2022-09-06T15:07:01.150Z,14.90
2022-09-06T15:09:28.989Z,18.88
2022-09-06T15:11:56.849Z,10.55
2022-09-06T15:14:32.081Z,15.07
2022-09-06T15:17:00.393Z,12.27
2022-09-06T15:19:36.329Z,12.63
2022-09-06T15:22:05.394Z,14.70
2022-09-06T15:24:33.748Z,16.02
2022-09-06T15:27:05.255Z,16.85
2022-09-06T15:29:33.116Z,8.00
2022-09-06T15:32:01.120Z,11.00
2022-09-06T15:34:28.780Z,13.02
2022-09-06T15:36:57.196Z,14.90
2022-09-06T15:39:25.040Z,12.23
2022-09-06T15:41:55.755Z,11.63
2022-09-06T15:44:23.376Z,13.02
2022-09-06T15:46:55.946Z,11.93
2022-09-06T15:49:32.087Z,14.90
2022-09-06T15:52:11.268Z,16.25
2022-09-06T15:54:59.792Z,11.07
2022-09-06T15:57:28.914Z,14.32
2022-09-06T15:59:56.930Z,18.65
2022-09-06T16:02:27.152Z,17.98
2022-09-06T16:07:22.692Z,11.60
2022-09-06T16:09:50.475Z,10.48
2022-09-06T16:12:18.433Z,15.50
2022-09-06T16:14:46.131Z,22.20
2022-09-06T16:17:13.802Z,16.83
2022-09-06T16:19:41.461Z,17.48
2022-09-06T16:22:10.534Z,26.05
2022-09-06T16:24:38.374Z,26.45
2022-09-06T16:27:08.492Z,22.00
2022-09-06T16:29:39.173Z,23.00
2022-09-06T16:32:06.898Z,17.40
2022-09-06T16:34:34.557Z,42.10
2022-09-06T16:37:07.984Z,25.80
2022-09-06T16:39:36.395Z,23.73
2022-09-06T16:42:04.312Z,30.17
2022-09-06T16:44:32.018Z,31.00
2022-09-06T16:47:04.179Z,20.45
2022-09-06T16:49:31.832Z,21.42
2022-09-06T16:52:02.378Z,25.80
2022-09-06T16:54:30.476Z,17.63
2022-09-06T16:56:58.441Z,23.27
2022-09-06T16:59:26.464Z,28.48
2022-09-06T17:01:56.169Z,18.33
2022-09-06T17:04:24.030Z,23.65
2022-09-06T17:06:58.052Z,14.75
2022-09-06T17:09:25.722Z,10.70
2022-09-06T17:11:53.509Z,14.00
2022-09-06T17:14:21.263Z,15.07
2022-09-06T17:17:07.589Z,14.80
2022-09-06T17:19:41.395Z,12.93
2022-09-06T17:22:10.460Z,17.35
2022-09-06T17:24:41.663Z,11.23
2022-09-06T17:27:10.085Z,13.23
2022-09-06T17:29:40.057Z,9.77
2022-09-06T17:32:10.301Z,16.58
2022-09-06T17:34:39.900Z,16.88
2022-09-06T17:37:07.762Z,14.85
2022-09-06T17:39:35.663Z,16.50
2022-09-06T17:42:13.390Z,9.18
2022-09-06T17:44:41.321Z,11.80
2022-09-06T17:47:12.819Z,11.50
2022-09-06T17:49:42.377Z,10.50
2022-09-06T17:52:10.846Z,12.10
2022-09-06T17:54:38.854Z,12.98
2022-09-06T17:57:06.703Z,7.47
2022-09-06T17:59:35.694Z,13.45
2022-09-06T18:02:05.201Z,11.73
2022-09-06T18:04:33.414Z,10.05
2022-09-06T18:07:05.608Z,15.48
2022-09-06T18:09:34.830Z,7.68
2022-09-06T18:12:04.993Z,18.75
2022-09-06T18:14:32.714Z,12.43
2022-09-06T18:17:00.679Z,9.15
2022-09-06T18:19:28.627Z,5.40
2022-09-06T18:22:02.346Z,12.75
2022-09-06T18:24:32.385Z,13.75
2022-09-06T18:27:02.930Z,11.68
2022-09-06T18:29:30.866Z,11.73
2022-09-06T18:31:59.735Z,21.77
2022-09-06T18:34:27.498Z,13.38
2022-09-06T18:36:55.771Z,11.90
2022-09-06T18:39:23.689Z,18.55
2022-09-06T18:42:00.631Z,11.43
2022-09-06T18:44:32.517Z,15.90
2022-09-06T18:47:06.635Z,13.40
2022-09-06T18:49:35.195Z,9.23
2022-09-06T18:52:05.865Z,11.70
2022-09-06T18:54:33.643Z,13.23
2022-09-06T18:57:01.741Z,16.58
2022-09-06T18:59:33.006Z,11.73
2022-09-06T19:02:01.801Z,9.40
2022-09-06T19:04:30.040Z,13.02
2022-09-06T19:06:59.415Z,10.73
2022-09-06T19:09:27.253Z,15.93
2022-09-06T19:11:54.909Z,7.50
2022-09-06T19:14:23.295Z,13.00
2022-09-06T19:16:53.874Z,12.55
2022-09-06T19:19:22.774Z,9.60
2022-09-06T19:21:50.919Z,14.48
2022-09-06T19:24:22.497Z,12.73
2022-09-06T19:26:50.577Z,14.73
2022-09-06T19:29:19.870Z,13.52
2022-09-06T19:31:48.553Z,16.83
2022-09-06T19:34:19.408Z,10.25
2022-09-06T19:36:52.159Z,10.32
2022-09-06T19:39:21.502Z,8.85
2022-09-06T19:41:49.693Z,13.23
2022-09-06T19:44:17.932Z,8.77
2022-09-06T19:46:47.293Z,10.75
2022-09-06T19:49:19.450Z,7.80
2022-09-06T19:51:49.007Z,10.85
2022-09-06T19:54:25.714Z,10.57
2022-09-06T19:56:54.046Z,10.45
2022-09-06T19:59:21.784Z,11.25
2022-09-06T20:01:49.617Z,13.13
2022-09-06T20:04:17.397Z,10.20
2022-09-06T20:06:45.041Z,11.45
2022-09-06T20:09:15.314Z,12.65
2022-09-06T20:11:43.118Z,17.75
2022-09-06T20:14:12.186Z,11.68
2022-09-06T20:16:46.032Z,9.75
2022-09-06T20:19:15.194Z,9.43
2022-09-06T20:21:46.882Z,15.00
2022-09-06T20:24:18.161Z,9.73
2022-09-06T20:26:46.178Z,6.90
2022-09-06T20:29:17.155Z,14.57
2022-09-06T20:31:45.139Z,12.15
2022-09-06T20:34:17.409Z,17.65
2022-09-06T20:36:47.686Z,6.25
2022-09-06T20:39:16.426Z,16.40
2022-09-06T20:41:45.174Z,12.18
2022-09-06T20:44:13.737Z,14.20
2022-09-06T20:46:41.500Z,7.40
2022-09-06T20:49:15.422Z,16.00
2022-09-06T20:51:43.301Z,14.57
2022-09-06T20:54:11.706Z,10.30
2022-09-06T20:56:40.889Z,11.40
2022-09-06T20:59:11.850Z,9.65
2022-09-06T21:01:42.270Z,12.48
2022-09-06T21:04:16.111Z,13.75
2022-09-06T21:06:47.273Z,18.35
2022-09-06T21:09:15.348Z,19.80
2022-09-06T21:11:45.223Z,16.67
2022-09-06T21:14:13.859Z,13.60
2022-09-06T21:16:42.062Z,11.65
2022-09-06T21:19:11.186Z,17.95
2022-09-06T21:21:39.522Z,17.98
2022-09-06T21:24:08.334Z,15.70
2022-09-06T21:26:36.086Z,16.27
2022-09-06T21:29:04.463Z,9.77
2022-09-06T21:31:36.105Z,18.17
2022-09-06T21:34:16.294Z,14.40
2022-09-06T21:36:47.626Z,14.50
2022-09-06T21:39:16.734Z,13.43
2022-09-06T21:41:45.183Z,15.73
2022-09-06T21:44:14.214Z,20.40
2022-09-06T21:46:44.597Z,15.32
2022-09-06T21:49:14.005Z,14.20
2022-09-06T21:51:43.094Z,15.32
2022-09-06T21:54:10.915Z,17.13
2022-09-06T21:56:39.546Z,21.67
2022-09-06T21:59:07.591Z,18.92
2022-09-06T22:01:36.860Z,24.67
2022-09-06T22:04:07.160Z,18.25
2022-09-06T22:06:35.839Z,13.30
2022-09-06T22:09:08.815Z,16.02
2022-09-06T22:11:41.369Z,15.52
2022-09-06T22:14:11.617Z,18.52
2022-09-06T22:16:42.942Z,17.48
2022-09-06T22:19:11.759Z,16.35
2022-09-06T22:21:39.751Z,17.60
2022-09-06T22:24:10.376Z,16.67
2022-09-06T22:29:08.085Z,18.50
2022-09-06T22:31:36.885Z,23.88
2022-09-06T22:34:04.953Z,30.23
2022-09-06T22:36:32.791Z,17.67
2022-09-06T22:39:00.460Z,17.70
2022-09-06T22:41:31.630Z,19.60
2022-09-06T22:44:00.958Z,15.38
2022-09-06T22:46:29.275Z,18.70
2022-09-06T22:48:57.222Z,21.25
2022-09-06T22:51:24.934Z,13.43
2022-09-06T22:53:52.564Z,15.85
2022-09-06T22:56:22.763Z,13.80
2022-09-06T22:58:53.553Z,16.13
2022-09-06T23:01:21.225Z,20.55
2022-09-06T23:03:50.837Z,18.13
2022-09-06T23:06:18.629Z,25.40
2022-09-06T23:08:46.476Z,21.83
2022-09-06T23:11:16.323Z,14.30
2022-09-06T23:13:47.254Z,16.48
2022-09-06T23:16:20.864Z,18.52
2022-09-06T23:18:48.919Z,13.90
2022-09-06T23:21:27.593Z,12.82
2022-09-06T23:23:56.336Z,19.65
2022-09-06T23:26:31.785Z,14.80
2022-09-06T23:29:04.787Z,12.20
2022-09-06T23:31:33.680Z,15.82
2022-09-06T23:34:02.409Z,15.48
2022-09-06T23:36:31.029Z,23.33
2022-09-06T23:38:59.167Z,19.35
2022-09-06T23:41:30.310Z,15.07
2022-09-06T23:43:58.058Z,14.48
2022-09-06T23:46:25.902Z,15.48
2022-09-06T23:48:53.583Z,15.73
2022-09-06T23:51:22.386Z,12.77
2022-09-06T23:53:50.146Z,23.52
2022-09-06T23:56:21.626Z,15.15
2022-09-06T23:58:49.350Z,15.02
